Time;durP1;ratioP1;P1;durP2;ratioP2;P2;SDS_P1;SDS_P2;PMS_P1;PMS_P2;Temp;Humidity;BMP_temperature;BMP_pressure;BME280_temperature;BME280_humidity;BME280_pressure;Samples;Min_cycle;Max_cycle;Signal;HPM_P1;HPM_P2
2021/08/09 00:00:55;;;;;;;1.65;0.75;;;21.50;52.90;;;;;;6151704;28;20105;-74
2021/08/09 00:03:56;;;;;;;3.22;0.80;;;21.50;52.90;;;;;;6149881;28;20036;-74
2021/08/09 00:06:57;;;;;;;2.75;0.80;;;21.40;53.10;;;;;;6151316;28;20086;-75
2021/08/09 00:09:58;;;;;;;3.67;0.73;;;21.50;53.20;;;;;;6151365;28;20039;-74
2021/08/09 00:12:59;;;;;;;6.05;1.33;;;21.40;53.30;;;;;;6151322;28;20049;-74
2021/08/09 00:16:00;;;;;;;3.80;1.30;;;21.40;53.40;;;;;;6152466;28;20039;-74
2021/08/09 00:19:01;;;;;;;1.13;0.75;;;21.40;53.50;;;;;;6152083;28;20027;-74
2021/08/09 00:22:03;;;;;;;2.92;1.25;;;21.40;53.70;;;;;;6136784;28;20460;-74
2021/08/09 00:25:05;;;;;;;2.20;1.00;;;21.40;53.90;;;;;;6155644;28;20031;-74
2021/08/09 00:28:06;;;;;;;2.92;1.00;;;21.40;54.20;;;;;;6140087;28;20051;-74
2021/08/09 00:31:07;;;;;;;3.00;0.93;;;21.30;54.30;;;;;;6140082;28;20031;-74
2021/08/09 00:34:09;;;;;;;1.10;0.80;;;21.30;54.20;;;;;;6138434;29;20038;-75
2021/08/09 00:37:10;;;;;;;4.13;0.90;;;21.30;54.00;;;;;;6160978;28;20046;-76
2021/08/09 00:40:12;;;;;;;3.53;1.10;;;21.30;53.90;;;;;;6187334;28;20030;-73
2021/08/09 00:43:14;;;;;;;1.98;0.90;;;21.30;53.90;;;;;;6187077;28;20026;-75
2021/08/09 00:46:17;;;;;;;3.97;0.80;;;21.20;53.90;;;;;;6171483;28;20043;-73
2021/08/09 00:49:22;;;;;;;0.85;0.68;;;21.20;53.90;;;;;;6186859;28;20049;-76
2021/08/09 00:52:23;;;;;;;6.38;1.00;;;21.20;53.90;;;;;;6187179;28;20042;-75
2021/08/09 00:55:26;;;;;;;17.45;1.13;;;21.20;54.00;;;;;;6187326;28;20046;-75
2021/08/09 00:58:28;;;;;;;4.72;0.90;;;21.20;53.90;;;;;;6171035;28;20069;-74
2021/08/09 01:01:29;;;;;;;4.93;0.95;;;21.10;53.90;;;;;;6187379;28;20462;-74
2021/08/09 01:04:35;;;;;;;1.50;1.00;;;21.10;53.90;;;;;;6186038;28;20116;-76
2021/08/09 01:08:13;;;;;;;4.63;0.90;;;21.10;54.00;;;;;;6204020;28;20035;-74
2021/08/09 01:11:39;;;;;;;4.35;0.80;;;21.00;54.10;;;;;;6199608;28;20459;-75
2021/08/09 01:15:13;;;;;;;7.43;0.98;;;20.90;54.20;;;;;;6165786;28;20359;-74
2021/08/09 01:18:23;;;;;;;7.20;1.10;;;20.90;54.40;;;;;;6180661;28;20046;-73
2021/08/09 01:21:25;;;;;;;2.40;1.00;;;20.90;54.50;;;;;;6165071;28;20045;-74
2021/08/09 01:24:39;;;;;;;2.75;1.23;;;20.90;54.60;;;;;;6181926;28;20346;-74
2021/08/09 01:27:43;;;;;;;3.92;1.02;;;20.90;54.70;;;;;;6165664;28;20034;-76
2021/08/09 01:30:46;;;;;;;1.70;0.88;;;20.90;54.70;;;;;;6181886;28;20042;-75
2021/08/09 01:33:48;;;;;;;3.15;1.00;;;20.80;54.80;;;;;;6180384;28;20117;-74
2021/08/09 01:36:52;;;;;;;2.83;1.08;;;20.80;54.80;;;;;;6198649;28;20042;-73
2021/08/09 01:39:54;;;;;;;1.65;1.10;;;20.80;54.90;;;;;;6136090;28;20050;-74
2021/08/09 01:42:57;;;;;;;6.32;0.98;;;20.80;55.10;;;;;;6150678;28;20039;-75
2021/08/09 01:46:00;;;;;;;2.42;1.00;;;20.80;55.20;;;;;;6134068;28;20035;-75
2021/08/09 01:49:03;;;;;;;1.00;0.75;;;20.70;55.20;;;;;;6150948;28;20031;-75
2021/08/09 01:52:04;;;;;;;2.42;0.85;;;20.70;55.30;;;;;;6134607;28;20031;-75
2021/08/09 01:55:09;;;;;;;5.70;0.80;;;20.70;55.40;;;;;;6150306;28;20035;-75
2021/08/09 01:58:10;;;;;;;5.10;1.10;;;20.70;55.50;;;;;;6134391;28;20126;-75
2021/08/09 02:01:13;;;;;;;2.60;0.88;;;20.70;55.60;;;;;;6150438;28;20035;-75
2021/08/09 02:04:15;;;;;;;2.17;1.02;;;20.70;55.70;;;;;;6133669;28;20035;-75
2021/08/09 02:07:17;;;;;;;2.70;0.85;;;20.60;55.80;;;;;;6151658;28;20049;-75
2021/08/09 02:10:29;;;;;;;3.20;1.00;;;20.60;55.80;;;;;;6151535;28;20042;-75
2021/08/09 02:14:01;;;;;;;1.77;0.90;;;20.60;55.80;;;;;;6135378;28;20050;-75
2021/08/09 02:17:21;;;;;;;1.42;0.75;;;20.60;55.80;;;;;;6145474;28;20039;-74
2021/08/09 02:20:32;;;;;;;9.75;1.00;;;20.60;55.70;;;;;;6150864;28;20071;-75
2021/08/09 02:23:46;;;;;;;0.90;0.63;;;20.60;55.60;;;;;;6136160;28;20054;-75
2021/08/09 02:26:54;;;;;;;2.85;0.88;;;20.60;55.50;;;;;;6136318;28;20036;-75
2021/08/09 02:29:56;;;;;;;5.13;0.82;;;20.60;55.40;;;;;;6152013;28;20134;-75
2021/08/09 02:33:00;;;;;;;1.70;0.63;;;20.60;55.30;;;;;;6134879;28;20039;-75
2021/08/09 02:36:04;;;;;;;2.45;0.80;;;20.50;55.20;;;;;;6136134;28;20134;-75
2021/08/09 02:39:06;;;;;;;3.80;0.85;;;20.50;55.40;;;;;;6151610;28;20062;-74
2021/08/09 02:42:11;;;;;;;2.75;0.90;;;20.50;55.50;;;;;;6152194;28;20039;-74
2021/08/09 02:45:13;;;;;;;4.20;1.20;;;20.40;55.80;;;;;;6135500;28;20544;-75
2021/08/09 02:48:16;;;;;;;1.98;0.77;;;20.40;56.00;;;;;;6151832;28;20035;-74
2021/08/09 02:51:19;;;;;;;5.00;1.05;;;20.30;56.10;;;;;;6154059;28;20035;-74
2021/08/09 02:54:22;;;;;;;5.93;1.05;;;20.30;56.30;;;;;;6135924;28;20049;-75
2021/08/09 02:57:26;;;;;;;13.52;1.13;;;20.30;56.40;;;;;;6151534;28;20122;-75
2021/08/09 03:00:27;;;;;;;3.10;0.80;;;20.30;56.40;;;;;;6135685;28;20117;-74
2021/08/09 03:03:30;;;;;;;9.38;1.15;;;20.30;56.50;;;;;;6149502;28;20035;-75
2021/08/09 03:06:32;;;;;;;4.63;0.90;;;20.30;56.60;;;;;;6135873;28;20070;-75
2021/08/09 03:09:35;;;;;;;2.15;0.85;;;20.30;56.60;;;;;;6135548;28;20123;-75
2021/08/09 03:12:36;;;;;;;8.60;1.23;;;20.30;56.70;;;;;;6151605;28;20043;-75
2021/08/09 03:15:38;;;;;;;2.10;1.48;;;20.30;56.90;;;;;;6152109;28;20460;-75
2021/08/09 03:18:40;;;;;;;2.78;1.40;;;20.20;56.90;;;;;;6151056;28;20066;-74
2021/08/09 03:21:54;;;;;;;11.63;2.85;;;20.20;57.10;;;;;;6135083;28;20032;-74
2021/08/09 03:24:55;;;;;;;3.25;1.42;;;20.20;57.40;;;;;;6150386;28;20043;-75
2021/08/09 03:27:58;;;;;;;3.85;1.35;;;20.20;57.30;;;;;;6127948;28;20385;-75
2021/08/09 03:31:02;;;;;;;2.08;0.82;;;20.20;57.40;;;;;;6152228;28;20505;-75
2021/08/09 03:34:04;;;;;;;4.20;1.50;;;20.20;57.50;;;;;;6149513;28;20027;-75
2021/08/09 03:37:06;;;;;;;3.70;0.98;;;20.20;57.60;;;;;;6150496;28;20043;-75
2021/08/09 03:40:09;;;;;;;4.07;0.90;;;20.20;57.80;;;;;;6141773;28;20097;-75
2021/08/09 03:43:10;;;;;;;1.52;1.00;;;20.10;57.90;;;;;;6162741;28;20039;-74
2021/08/09 03:46:13;;;;;;;4.75;1.38;;;20.10;58.10;;;;;;6174535;28;20054;-75
2021/08/09 03:49:14;;;;;;;5.20;1.20;;;20.10;58.30;;;;;;6158468;28;20039;-75
2021/08/09 03:52:15;;;;;;;1.63;0.90;;;20.10;58.60;;;;;;6158617;28;20045;-75
2021/08/09 03:55:16;;;;;;;2.13;1.15;;;20.00;58.80;;;;;;6174071;28;20094;-75
2021/08/09 03:58:17;;;;;;;3.15;0.80;;;19.90;58.90;;;;;;6173613;28;20038;-74
2021/08/09 04:01:19;;;;;;;3.13;1.23;;;19.90;59.00;;;;;;6174022;28;20039;-75
2021/08/09 04:04:20;;;;;;;3.22;0.95;;;19.90;59.10;;;;;;6173125;28;20197;-74
2021/08/09 04:07:21;;;;;;;4.20;1.08;;;19.90;59.30;;;;;;6158145;28;20035;-75
2021/08/09 04:10:22;;;;;;;5.90;2.40;;;19.90;59.20;;;;;;6174939;28;20034;-75
2021/08/09 04:13:24;;;;;;;3.65;1.73;;;19.90;59.30;;;;;;6177841;28;20094;-75
2021/08/09 04:16:26;;;;;;;3.47;1.40;;;19.80;59.50;;;;;;6178979;28;20042;-75
2021/08/09 04:19:28;;;;;;;6.57;1.13;;;19.80;59.40;;;;;;6159067;28;20352;-75
2021/08/09 04:22:29;;;;;;;2.28;1.13;;;19.80;59.60;;;;;;6174499;28;20035;-75
2021/08/09 04:25:30;;;;;;;3.05;1.05;;;19.80;59.70;;;;;;6174031;28;20035;-75
2021/08/09 04:28:33;;;;;;;2.10;1.05;;;19.80;59.70;;;;;;6173909;28;20457;-74
2021/08/09 04:31:39;;;;;;;8.57;1.35;;;19.70;59.70;;;;;;6173940;28;20035;-75
2021/08/09 04:34:40;;;;;;;1.60;0.98;;;19.70;59.90;;;;;;6156699;28;20125;-74
2021/08/09 04:37:42;;;;;;;1.20;0.98;;;19.70;59.90;;;;;;6179540;28;20487;-75
2021/08/09 04:40:44;;;;;;;3.03;1.17;;;19.70;60.00;;;;;;6181482;28;20379;-75
2021/08/09 04:43:46;;;;;;;2.85;1.10;;;19.70;60.00;;;;;;6181878;28;20113;-74
2021/08/09 04:46:51;;;;;;;2.17;1.10;;;19.60;60.00;;;;;;6181288;28;20034;-75
2021/08/09 04:49:52;;;;;;;4.13;1.33;;;19.60;59.90;;;;;;6198791;28;20097;-74
2021/08/09 04:52:53;;;;;;;2.58;1.00;;;19.60;59.90;;;;;;6181484;28;20030;-75
2021/08/09 04:56:00;;;;;;;3.70;1.52;;;19.60;59.80;;;;;;6181201;28;20035;-75
2021/08/09 04:59:05;;;;;;;1.27;0.90;;;19.60;59.80;;;;;;6181522;28;20264;-75
2021/08/09 05:02:07;;;;;;;4.80;1.42;;;19.60;59.90;;;;;;6180235;28;20085;-75
2021/08/09 05:05:09;;;;;;;6.55;1.02;;;19.60;60.60;;;;;;6165464;28;20104;-75
2021/08/09 05:08:10;;;;;;;3.05;1.02;;;19.60;59.60;;;;;;6167182;28;20026;-75
2021/08/09 05:11:12;;;;;;;2.38;0.93;;;19.60;59.50;;;;;;6185785;28;20088;-74
2021/08/09 05:14:15;;;;;;;4.85;1.00;;;19.60;59.30;;;;;;6185857;28;20463;-75
2021/08/09 05:17:16;;;;;;;4.00;1.20;;;19.60;59.10;;;;;;6185704;28;20041;-75
2021/08/09 05:20:17;;;;;;;2.33;1.25;;;19.50;59.00;;;;;;6202557;28;20467;-74
2021/08/09 05:23:18;;;;;;;1.98;1.05;;;19.50;59.30;;;;;;6185323;28;20034;-75
2021/08/09 05:26:19;;;;;;;2.22;1.38;;;19.60;59.50;;;;;;6185717;28;20053;-75
2021/08/09 05:29:20;;;;;;;3.97;1.20;;;19.60;59.70;;;;;;6202361;28;20042;-75
2021/08/09 05:32:21;;;;;;;3.40;1.38;;;19.60;59.70;;;;;;6201163;28;20129;-75
2021/08/09 05:35:23;;;;;;;6.10;1.25;;;19.60;59.90;;;;;;6169416;28;20038;-74
2021/08/09 05:38:24;;;;;;;2.35;1.30;;;19.60;60.00;;;;;;6165861;28;20358;-75
2021/08/09 05:41:26;;;;;;;1.58;1.10;;;19.60;60.00;;;;;;6152958;28;20106;-75
2021/08/09 05:44:30;;;;;;;4.20;1.35;;;19.60;60.20;;;;;;6153055;28;20174;-75
2021/08/09 05:47:31;;;;;;;2.05;1.17;;;19.60;60.10;;;;;;6154343;28;20035;-74
2021/08/09 05:50:32;;;;;;;6.43;1.17;;;19.60;60.00;;;;;;6153173;28;20062;-75
2021/08/09 05:53:40;;;;;;;2.30;1.30;;;19.60;60.00;;;;;;6137048;28;20035;-75
2021/08/09 05:56:42;;;;;;;5.85;1.25;;;19.60;60.00;;;;;;6151970;28;20035;-75
2021/08/09 05:59:45;;;;;;;1.52;0.90;;;19.60;60.00;;;;;;6128702;28;20385;-75
2021/08/09 06:02:47;;;;;;;7.93;1.55;;;19.60;60.10;;;;;;6143562;28;20036;-74
2021/08/09 06:05:59;;;;;;;1.92;1.17;;;19.60;60.20;;;;;;6150365;28;20510;-75
2021/08/09 06:09:08;;;;;;;5.78;1.35;;;19.70;60.20;;;;;;6152512;28;20039;-74
2021/08/09 06:12:11;;;;;;;4.57;1.30;;;19.80;60.10;;;;;;6137005;28;20066;-75
2021/08/09 06:15:12;;;;;;;3.67;1.30;;;19.80;60.00;;;;;;6136406;28;20094;-75
2021/08/09 06:18:13;;;;;;;10.52;1.42;;;19.80;59.80;;;;;;6142592;28;20409;-75
2021/08/09 06:21:14;;;;;;;2.03;1.13;;;19.90;59.80;;;;;;6152347;28;20457;-75
2021/08/09 06:24:17;;;;;;;3.10;1.42;;;20.00;59.80;;;;;;6136309;28;20054;-75
2021/08/09 06:27:21;;;;;;;5.10;1.67;;;20.00;59.80;;;;;;6151665;28;20055;-74
2021/08/09 06:30:22;;;;;;;2.58;1.60;;;20.00;59.70;;;;;;6151702;28;20039;-74
2021/08/09 06:33:23;;;;;;;5.28;1.80;;;20.10;59.70;;;;;;6150520;28;20228;-74
2021/08/09 06:36:24;;;;;;;3.17;1.25;;;20.10;59.50;;;;;;6151163;28;20070;-74
2021/08/09 06:39:25;;;;;;;3.42;1.35;;;20.20;59.40;;;;;;6151290;28;20065;-74
2021/08/09 06:42:27;;;;;;;2.38;1.45;;;20.20;59.20;;;;;;6151281;28;20043;-74
2021/08/09 06:45:51;;;;;;;3.20;1.58;;;20.30;59.10;;;;;;6132953;28;20537;-74
2021/08/09 06:48:53;;;;;;;3.33;1.35;;;20.40;58.90;;;;;;6146315;28;20042;-75
2021/08/09 06:51:55;;;;;;;4.28;1.38;;;20.40;58.40;;;;;;6149949;28;20057;-75
2021/08/09 06:54:59;;;;;;;3.00;1.50;;;20.50;58.10;;;;;;6149875;28;20091;-74
2021/08/09 06:58:02;;;;;;;7.53;1.48;;;20.50;58.00;;;;;;6133639;28;20043;-74
2021/08/09 07:01:04;;;;;;;2.03;1.00;;;20.70;57.70;;;;;;6149523;28;20027;-75
2021/08/09 07:04:05;;;;;;;4.60;1.40;;;20.80;57.40;;;;;;6145433;28;20045;-74
2021/08/09 07:07:06;;;;;;;4.78;1.83;;;20.80;57.30;;;;;;6134157;28;20046;-74
2021/08/09 07:10:08;;;;;;;6.10;1.35;;;20.90;57.20;;;;;;6134034;28;20040;-75
2021/08/09 07:13:10;;;;;;;2.10;1.30;;;21.10;56.90;;;;;;6150130;28;20137;-74
2021/08/09 07:16:13;;;;;;;2.33;1.00;;;21.20;56.20;;;;;;6149729;28;20130;-75
2021/08/09 07:19:16;;;;;;;3.03;1.15;;;21.30;56.00;;;;;;6149674;28;20114;-75
2021/08/09 07:22:17;;;;;;;3.17;1.17;;;21.40;55.80;;;;;;6149258;28;20047;-75
2021/08/09 07:25:19;;;;;;;8.88;2.50;;;21.40;55.40;;;;;;6149392;28;20118;-74
2021/08/09 07:28:22;;;;;;;8.10;2.00;;;21.50;55.20;;;;;;6134071;28;20098;-75
2021/08/09 07:31:23;;;;;;;8.40;1.73;;;21.50;55.10;;;;;;6149197;28;20133;-75
2021/08/09 07:34:24;;;;;;;1.75;1.02;;;21.60;55.00;;;;;;6148218;28;20043;-75
2021/08/09 07:37:26;;;;;;;2.75;1.17;;;21.70;54.70;;;;;;6154447;28;20073;-75
2021/08/09 07:40:27;;;;;;;3.00;1.20;;;21.80;54.50;;;;;;6180949;28;20066;-74
2021/08/09 07:43:36;;;;;;;12.43;1.20;;;21.90;54.40;;;;;;6180517;28;20038;-75
2021/08/09 07:46:37;;;;;;;1.58;1.00;;;22.10;54.30;;;;;;6164693;28;20459;-74
2021/08/09 07:49:38;;;;;;;4.15;1.00;;;22.30;53.70;;;;;;6180355;28;20045;-74
2021/08/09 07:52:40;;;;;;;8.13;0.88;;;22.40;53.40;;;;;;6180558;28;20370;-74
2021/08/09 07:55:41;;;;;;;5.20;1.30;;;22.40;52.90;;;;;;6180443;28;20038;-75
2021/08/09 07:58:42;;;;;;;4.40;0.90;;;22.50;52.80;;;;;;6180489;28;20034;-75
2021/08/09 08:01:44;;;;;;;7.28;1.08;;;22.60;52.70;;;;;;6179304;28;20030;-75
2021/08/09 08:04:45;;;;;;;2.85;1.27;;;22.70;52.50;;;;;;6169904;28;20030;-74
2021/08/09 08:07:46;;;;;;;2.35;1.33;;;22.90;52.40;;;;;;6164369;28;20034;-75
2021/08/09 08:10:48;;;;;;;2.15;1.05;;;23.10;52.10;;;;;;6197185;28;20037;-74
2021/08/09 08:13:49;;;;;;;2.17;1.02;;;23.40;50.80;;;;;;6163103;28;20045;-74
2021/08/09 08:16:50;;;;;;;6.68;1.20;;;23.40;51.20;;;;;;6162772;28;20030;-75
2021/08/09 08:19:51;;;;;;;1.38;1.02;;;23.50;50.20;;;;;;6179486;28;20058;-75
2021/08/09 08:22:54;;;;;;;2.65;1.30;;;23.70;49.90;;;;;;6179982;28;20423;-75
2021/08/09 08:25:55;;;;;;;7.22;1.30;;;23.80;49.80;;;;;;6163872;28;20054;-75
2021/08/09 08:28:57;;;;;;;5.15;1.48;;;23.90;49.50;;;;;;6179462;28;20108;-75
2021/08/09 08:31:58;;;;;;;3.92;0.98;;;24.00;48.90;;;;;;6162945;28;20038;-75
2021/08/09 08:35:01;;;;;;;1.63;1.45;;;24.10;48.80;;;;;;6180023;28;20375;-75
2021/08/09 08:38:02;;;;;;;3.75;1.23;;;24.20;48.60;;;;;;6163656;28;20046;-75
2021/08/09 08:41:07;;;;;;;4.10;1.40;;;24.30;48.30;;;;;;6179923;28;20034;-75
2021/08/09 08:44:10;;;;;;;2.15;1.15;;;24.40;47.70;;;;;;6183564;28;20034;-75
2021/08/09 08:47:18;;;;;;;4.72;1.58;;;24.30;47.20;;;;;;6186048;28;20041;-75
2021/08/09 08:50:22;;;;;;;3.00;1.20;;;24.40;47.30;;;;;;6185378;28;20475;-75
2021/08/09 08:53:33;;;;;;;9.65;2.38;;;24.50;47.00;;;;;;6185641;28;20030;-74
2021/08/09 08:56:38;;;;;;;6.53;3.10;;;24.50;46.60;;;;;;6185988;28;20121;-75
2021/08/09 08:59:39;;;;;;;2.45;1.20;;;24.60;46.60;;;;;;6184467;28;20475;-75
2021/08/09 09:02:41;;;;;;;6.63;1.10;;;24.80;46.70;;;;;;6184965;28;20180;-75
2021/08/09 09:05:55;;;;;;;8.82;1.35;;;24.90;46.50;;;;;;6202758;28;20054;-75
2021/08/09 09:08:56;;;;;;;4.28;1.15;;;25.00;46.20;;;;;;6202295;28;20038;-75
2021/08/09 09:11:57;;;;;;;4.63;1.35;;;25.10;46.30;;;;;;6185144;28;20030;-75
2021/08/09 09:15:05;;;;;;;2.47;1.17;;;25.20;46.20;;;;;;6184055;28;20061;-75
2021/08/09 09:18:06;;;;;;;8.02;1.65;;;25.30;46.20;;;;;;6201799;28;20053;-74
2021/08/09 09:21:23;;;;;;;7.75;1.33;;;25.40;46.00;;;;;;6168781;28;20030;-75
2021/08/09 09:24:26;;;;;;;5.95;1.58;;;25.60;45.80;;;;;;6202280;28;20104;-76
2021/08/09 09:27:28;;;;;;;3.80;1.25;;;25.70;45.40;;;;;;6184868;28;20037;-75
2021/08/09 09:30:30;;;;;;;4.22;1.15;;;25.80;45.10;;;;;;6191909;28;20439;-76
2021/08/09 09:33:31;;;;;;;1.88;1.13;;;26.00;44.90;;;;;;6183402;28;20046;-75
2021/08/09 09:36:45;;;;;;;2.58;1.20;;;26.00;44.70;;;;;;6184947;28;20085;-75
2021/08/09 09:39:46;;;;;;;7.07;1.40;;;26.10;44.40;;;;;;6182353;28;20046;-74
2021/08/09 09:42:49;;;;;;;7.40;1.27;;;26.10;44.20;;;;;;6174346;28;20027;-73
2021/08/09 09:45:53;;;;;;;1.75;1.02;;;26.20;44.10;;;;;;6174020;28;20034;-74
2021/08/09 09:49:02;;;;;;;2.15;0.90;;;26.30;44.00;;;;;;6199921;28;20026;-74
2021/08/09 09:52:03;;;;;;;5.45;1.20;;;26.30;43.80;;;;;;6198786;28;20022;-74
2021/08/09 09:55:07;;;;;;;1.90;1.23;;;26.30;43.70;;;;;;6165700;28;20146;-73
2021/08/09 09:58:09;;;;;;;1.95;1.05;;;26.40;43.90;;;;;;6182931;28;20053;-74
2021/08/09 10:01:10;;;;;;;2.28;1.17;;;26.40;43.80;;;;;;6182951;28;20034;-74
2021/08/09 10:04:11;;;;;;;4.70;1.00;;;26.50;43.40;;;;;;6198821;28;20082;-74
2021/08/09 10:07:14;;;;;;;1.33;1.10;;;26.70;43.30;;;;;;6182972;28;20038;-76
2021/08/09 10:10:19;;;;;;;1.27;1.17;;;26.70;43.10;;;;;;6182504;28;20035;-75
2021/08/09 10:13:22;;;;;;;2.33;1.30;;;26.70;42.90;;;;;;6199464;28;20038;-76
2021/08/09 10:16:32;;;;;;;1.65;1.02;;;26.70;42.70;;;;;;6182540;28;20046;-74
2021/08/09 10:19:33;;;;;;;6.47;1.00;;;26.80;42.40;;;;;;6199636;28;20085;-74
2021/08/09 10:22:34;;;;;;;1.17;0.93;;;26.90;42.00;;;;;;6199214;28;20037;-75
2021/08/09 10:25:45;;;;;;;1.55;1.02;;;27.00;41.70;;;;;;6172913;28;20045;-75
2021/08/09 10:28:53;;;;;;;5.05;1.10;;;27.00;41.50;;;;;;6183768;28;20351;-75
2021/08/09 10:32:19;;;;;;;2.47;1.50;;;27.10;41.30;;;;;;6202309;28;20035;-74
2021/08/09 10:38:37;;;;;;;5.68;1.00;;;27.30;40.90;;;;;;6197929;28;20494;-74
2021/08/09 10:41:39;;;;;;;1.10;1.00;;;27.40;40.70;;;;;;6180263;28;20038;-74
2021/08/09 10:44:50;;;;;;;4.00;1.00;;;27.50;40.50;;;;;;6165046;28;20030;-74
2021/08/09 10:47:53;;;;;;;2.53;1.10;;;27.60;39.90;;;;;;6196943;28;20045;-74
2021/08/09 10:50:54;;;;;;;1.65;0.80;;;27.70;39.70;;;;;;6197620;28;20062;-74
2021/08/09 10:53:56;;;;;;;1.95;1.00;;;27.70;39.20;;;;;;6179972;28;20037;-74
2021/08/09 10:56:58;;;;;;;1.00;0.90;;;27.80;39.10;;;;;;6197095;28;20359;-76
2021/08/09 11:00:00;;;;;;;5.13;1.15;;;28.00;38.20;;;;;;6164771;28;20046;-75
2021/08/09 11:03:20;;;;;;;6.70;0.98;;;28.70;37.20;;;;;;6179064;28;20166;-75
2021/08/09 11:06:41;;;;;;;3.13;1.17;;;29.70;35.70;;;;;;6178600;28;20042;-76
2021/08/09 11:09:45;;;;;;;4.22;1.00;;;30.80;34.40;;;;;;6163574;28;20080;-74
2021/08/09 11:12:59;;;;;;;5.10;1.23;;;31.60;33.40;;;;;;6179655;28;20064;-74
2021/08/09 11:16:02;;;;;;;3.65;1.17;;;32.40;32.60;;;;;;6179868;28;20038;-74
2021/08/09 11:19:03;;;;;;;2.42;0.82;;;33.00;31.70;;;;;;6179997;28;20451;-74
2021/08/09 11:22:04;;;;;;;1.17;0.90;;;33.50;30.90;;;;;;6196885;28;20037;-75
2021/08/09 11:25:32;;;;;;;4.82;1.25;;;33.80;30.00;;;;;;6180029;28;20375;-74
2021/08/09 11:28:33;;;;;;;1.92;1.05;;;34.00;29.90;;;;;;6179684;28;20108;-74
2021/08/09 11:31:50;;;;;;;4.78;1.35;;;34.10;29.50;;;;;;6178297;28;20030;-74
2021/08/09 11:35:01;;;;;;;7.63;0.98;;;34.30;29.30;;;;;;6154911;28;20019;-75
2021/08/09 11:38:03;;;;;;;1.83;1.23;;;34.50;29.00;;;;;;6154678;28;20078;-75
2021/08/09 11:41:05;;;;;;;4.60;1.23;;;34.80;28.80;;;;;;6145085;28;20038;-75
2021/08/09 11:44:08;;;;;;;6.65;1.58;;;35.10;28.70;;;;;;6145153;28;20038;-76
2021/08/09 11:47:09;;;;;;;1.95;1.10;;;35.40;28.00;;;;;;6154878;28;20090;-75
2021/08/09 11:50:10;;;;;;;4.97;1.30;;;35.50;28.30;;;;;;6155614;28;20053;-75
2021/08/09 11:53:16;;;;;;;3.15;1.02;;;35.70;27.80;;;;;;6155334;28;20049;-76
2021/08/09 11:56:21;;;;;;;5.13;2.30;;;35.80;27.10;;;;;;6155007;28;20356;-75
2021/08/09 11:59:22;;;;;;;5.80;2.60;;;35.90;26.50;;;;;;6173506;28;20030;-75
2021/08/09 12:02:23;;;;;;;2.53;1.60;;;35.70;26.40;;;;;;6162109;28;20030;-75
2021/08/09 12:05:24;;;;;;;4.05;1.58;;;35.60;26.70;;;;;;6164051;28;20038;-75
2021/08/09 12:08:26;;;;;;;6.13;2.63;;;35.70;26.70;;;;;;6197436;28;20026;-75
2021/08/09 12:11:32;;;;;;;3.20;1.60;;;35.90;26.60;;;;;;6163982;28;20034;-75
2021/08/09 12:14:33;;;;;;;3.13;1.33;;;36.00;26.60;;;;;;6179960;28;20038;-75
2021/08/09 12:17:34;;;;;;;1.48;1.25;;;36.30;26.60;;;;;;6181558;28;20034;-75
2021/08/09 12:20:36;;;;;;;8.45;3.03;;;36.60;25.90;;;;;;6169094;28;20124;-75
2021/08/09 12:23:54;;;;;;;3.70;2.08;;;36.70;25.60;;;;;;6168771;28;20069;-75
2021/08/09 12:27:12;;;;;;;;;;;36.50;25.20;;;;;;6202580;28;20642;-75
2021/08/09 12:30:15;;;;;;;3.05;1.40;;;36.40;25.10;;;;;;6201803;28;20250;-75
2021/08/09 12:33:16;;;;;;;1.63;1.02;;;36.20;25.10;;;;;;6183835;28;20069;-75
2021/08/09 12:36:17;;;;;;;2.17;0.88;;;36.20;25.20;;;;;;6184795;28;20061;-75
2021/08/09 12:39:35;;;;;;;1.00;0.90;;;36.50;25.20;;;;;;6168193;28;20049;-75
2021/08/09 12:42:36;;;;;;;3.30;1.00;;;37.20;25.00;;;;;;6201680;28;20066;-75
2021/08/09 12:45:39;;;;;;;1.23;0.80;;;37.80;24.40;;;;;;6184531;28;20038;-75
2021/08/09 12:48:48;;;;;;;2.85;1.40;;;38.30;24.10;;;;;;6167925;28;20034;-76
2021/08/09 12:51:50;;;;;;;3.90;1.70;;;38.60;24.00;;;;;;6168252;28;20045;-75
2021/08/09 12:54:51;;;;;;;1.98;1.38;;;39.10;23.80;;;;;;6182425;28;20117;-76
2021/08/09 12:57:53;;;;;;;3.22;1.25;;;39.30;23.40;;;;;;6184681;28;20062;-75
2021/08/09 13:00:54;;;;;;;1.20;1.10;;;39.50;23.50;;;;;;6201547;28;20030;-75
2021/08/09 13:03:55;;;;;;;4.55;1.95;;;40.00;23.30;;;;;;6183459;28;20038;-75
2021/08/09 13:06:57;;;;;;;13.73;2.03;;;40.70;22.80;;;;;;6184244;28;20451;-76
2021/08/09 13:09:58;;;;;;;6.18;1.30;;;41.00;21.90;;;;;;6183371;28;20045;-76
2021/08/09 13:12:59;;;;;;;4.50;1.40;;;41.30;21.60;;;;;;6200724;28;20034;-76
2021/08/09 13:16:00;;;;;;;2.35;1.20;;;41.50;21.40;;;;;;6200603;28;20475;-76
2021/08/09 13:19:02;;;;;;;2.90;1.17;;;41.70;21.30;;;;;;6168082;28;20038;-76
2021/08/09 13:22:03;;;;;;;1.23;1.00;;;42.20;20.60;;;;;;6184096;28;20042;-76
2021/08/09 13:25:04;;;;;;;3.28;1.02;;;42.80;20.20;;;;;;6200694;28;20121;-76
2021/08/09 13:28:05;;;;;;;1.45;1.02;;;43.20;19.80;;;;;;6183809;28;20109;-76
2021/08/09 13:31:06;;;;;;;2.17;1.30;;;43.80;19.70;;;;;;6200861;28;20039;-76
2021/08/09 13:34:07;;;;;;;6.03;1.50;;;44.60;19.20;;;;;;6181779;28;20042;-75
2021/08/09 13:37:08;;;;;;;2.80;1.88;;;45.30;18.80;;;;;;6183097;28;20038;-75
2021/08/09 13:40:10;;;;;;;2.22;1.58;;;45.80;18.40;;;;;;6200418;28;20058;-75
2021/08/09 13:43:11;;;;;;;1.92;1.27;;;46.00;18.30;;;;;;6167084;28;20038;-75
2021/08/09 13:46:12;;;;;;;3.17;1.63;;;46.50;18.00;;;;;;6182962;28;20518;-76
2021/08/09 13:49:13;;;;;;;1.95;1.17;;;47.10;17.60;;;;;;6200272;28;20038;-76
2021/08/09 13:52:14;;;;;;;2.35;1.17;;;47.30;17.20;;;;;;6200250;28;20038;-76
2021/08/09 13:55:15;;;;;;;2.97;1.23;;;47.50;17.20;;;;;;6183434;28;20041;-76
2021/08/09 13:58:16;;;;;;;1.90;1.08;;;47.60;17.10;;;;;;6183089;28;20046;-75
2021/08/09 14:01:17;;;;;;;2.47;1.00;;;47.80;17.20;;;;;;6200448;28;20105;-76
2021/08/09 14:04:18;;;;;;;4.78;1.00;;;47.90;17.20;;;;;;6181467;28;20076;-76
2021/08/09 14:07:19;;;;;;;3.35;1.15;;;47.60;17.30;;;;;;6182463;28;20070;-75
2021/08/09 14:10:20;;;;;;;2.53;1.10;;;47.10;17.60;;;;;;6182953;28;20038;-75
2021/08/09 14:13:24;;;;;;;1.52;1.02;;;46.70;17.90;;;;;;6181886;28;20038;-74
2021/08/09 14:16:25;;;;;;;2.05;1.10;;;46.90;17.40;;;;;;6183885;28;20038;-75
2021/08/09 14:19:34;;;;;;;1.42;1.15;;;47.00;17.20;;;;;;6183174;28;20030;-74
2021/08/09 14:22:37;;;;;;;3.22;1.10;;;46.90;17.10;;;;;;6167928;28;20034;-75
2021/08/09 14:25:43;;;;;;;1.95;1.30;;;46.40;17.10;;;;;;6183493;28;20061;-75
2021/08/09 14:28:45;;;;;;;4.10;1.20;;;45.70;17.70;;;;;;6167416;28;20043;-74
2021/08/09 14:31:47;;;;;;;3.40;1.20;;;45.70;17.60;;;;;;6165920;28;20050;-75
2021/08/09 14:34:52;;;;;;;3.25;1.17;;;46.10;17.30;;;;;;6183604;28;20039;-75
2021/08/09 14:37:54;;;;;;;2.45;1.35;;;46.30;17.10;;;;;;6182788;28;20376;-75
2021/08/09 14:40:55;;;;;;;2.80;1.20;;;46.50;17.10;;;;;;6182378;28;20375;-75
2021/08/09 14:43:56;;;;;;;3.60;1.70;;;46.40;17.30;;;;;;6167362;28;20042;-74
2021/08/09 14:46:58;;;;;;;3.88;1.27;;;45.40;17.90;;;;;;6183051;28;20061;-75
2021/08/09 14:50:03;;;;;;;6.80;1.40;;;44.10;18.90;;;;;;6183086;28;20193;-75
2021/08/09 14:53:05;;;;;;;6.93;1.50;;;42.60;19.90;;;;;;6182836;28;20093;-74
2021/08/09 14:56:06;;;;;;;2.92;1.27;;;41.30;21.30;;;;;;6167209;28;20045;-74
2021/08/09 14:59:15;;;;;;;5.75;1.25;;;40.20;21.90;;;;;;6182486;28;20124;-75
2021/08/09 15:02:18;;;;;;;2.45;1.20;;;39.20;22.60;;;;;;6181296;28;20042;-74
2021/08/09 15:05:21;;;;;;;7.35;1.40;;;38.30;23.30;;;;;;6182415;28;20034;-75
2021/08/09 15:08:23;;;;;;;1.52;1.10;;;37.60;24.00;;;;;;6182499;28;20038;-75
2021/08/09 15:11:24;;;;;;;3.53;1.10;;;36.90;24.60;;;;;;6181922;28;20041;-75
2021/08/09 15:14:25;;;;;;;7.90;1.20;;;36.10;25.30;;;;;;6165467;28;20487;-74
2021/08/09 15:17:27;;;;;;;1.50;1.17;;;35.50;25.90;;;;;;6182627;28;20042;-75
2021/08/09 15:20:28;;;;;;;3.42;1.23;;;35.10;26.50;;;;;;6172504;28;20129;-74
2021/08/09 15:23:29;;;;;;;1.60;1.13;;;34.70;27.00;;;;;;6174149;28;20048;-75
2021/08/09 15:26:31;;;;;;;2.58;1.48;;;34.40;27.40;;;;;;6199318;28;20041;-75
2021/08/09 15:29:34;;;;;;;2.30;1.20;;;34.10;27.80;;;;;;6182568;28;20031;-75
2021/08/09 15:32:35;;;;;;;5.07;1.20;;;34.00;28.40;;;;;;6197269;28;20038;-75
2021/08/09 15:35:41;;;;;;;4.25;1.40;;;34.00;28.60;;;;;;6198763;28;20043;-75
2021/08/09 15:38:42;;;;;;;4.22;1.10;;;34.30;28.50;;;;;;6165619;28;20035;-75
2021/08/09 15:41:43;;;;;;;3.65;1.77;;;35.80;27.40;;;;;;6198976;28;20107;-75
2021/08/09 15:44:44;;;;;;;3.25;1.40;;;37.50;25.60;;;;;;6181625;28;20038;-75
2021/08/09 15:47:45;;;;;;;4.40;1.20;;;39.20;24.20;;;;;;6181382;28;20046;-75
2021/08/09 15:50:48;;;;;;;2.58;1.23;;;40.40;23.10;;;;;;6166168;28;20042;-75
2021/08/09 15:53:54;;;;;;;7.95;4.30;;;41.40;22.20;;;;;;6198608;28;20065;-75
2021/08/09 15:56:56;;;;;;;2.80;1.35;;;42.40;21.30;;;;;;6198619;28;20088;-75
2021/08/09 15:59:57;;;;;;;1.73;1.20;;;43.20;20.40;;;;;;6181800;28;20344;-75